sensor_id;sensor_type;location;lat;lon;timestamp;pressure;altitude;pressure_sealevel;temperature
25985;BMP280;66753;53.848;10.658;2023-04-30T00:12:52;102061.22;;;6.01
25985;BMP280;66753;53.848;10.658;2023-04-30T00:27:52;102057.03;;;5.85
25985;BMP280;66753;53.848;10.658;2023-04-30T00:42:53;102060.78;;;5.64
25985;BMP280;66753;53.848;10.658;2023-04-30T00:57:55;102079.69;;;5.41
25985;BMP280;66753;53.848;10.658;2023-04-30T01:13:02;102094.91;;;5.19
25985;BMP280;66753;53.848;10.658;2023-04-30T01:28:09;102108.53;;;5.01
25985;BMP280;66753;53.848;10.658;2023-04-30T01:43:29;102106.09;;;4.79
25985;BMP280;66753;53.848;10.658;2023-04-30T01:58:31;102113.03;;;4.54
25985;BMP280;66753;53.848;10.658;2023-04-30T02:13:32;102109.84;;;4.42
25985;BMP280;66753;53.848;10.658;2023-04-30T02:28:32;102129.75;;;4.38
25985;BMP280;66753;53.848;10.658;2023-04-30T02:43:33;102142.06;;;4.32
25985;BMP280;66753;53.848;10.658;2023-04-30T02:58:33;102135.44;;;4.25
25985;BMP280;66753;53.848;10.658;2023-04-30T03:13:33;102131.75;;;4.21
25985;BMP280;66753;53.848;10.658;2023-04-30T03:28:34;102142.69;;;4.13
25985;BMP280;66753;53.848;10.658;2023-04-30T03:43:35;102156.72;;;3.97
25985;BMP280;66753;53.848;10.658;2023-04-30T03:58:37;102162.44;;;3.89
25985;BMP280;66753;53.848;10.658;2023-04-30T04:13:37;102176.09;;;3.91
25985;BMP280;66753;53.848;10.658;2023-04-30T04:28:38;102188.56;;;4.05
25985;BMP280;66753;53.848;10.658;2023-04-30T04:43:38;102212.59;;;4.24
25985;BMP280;66753;53.848;10.658;2023-04-30T04:58:40;102231.75;;;4.56
25985;BMP280;66753;53.848;10.658;2023-04-30T05:13:41;102263.81;;;4.99
25985;BMP280;66753;53.848;10.658;2023-04-30T05:28:41;102286.16;;;5.58
25985;BMP280;66753;53.848;10.658;2023-04-30T05:43:42;102315.00;;;6.25
25985;BMP280;66753;53.848;10.658;2023-04-30T05:58:42;102337.63;;;7.06
25985;BMP280;66753;53.848;10.658;2023-04-30T06:13:45;102348.44;;;8.17
25985;BMP280;66753;53.848;10.658;2023-04-30T06:28:46;102335.34;;;8.93
25985;BMP280;66753;53.848;10.658;2023-04-30T06:43:46;102333.03;;;9.52
25985;BMP280;66753;53.848;10.658;2023-04-30T06:58:47;102334.47;;;10.18
25985;BMP280;66753;53.848;10.658;2023-04-30T07:13:49;102322.78;;;10.33
25985;BMP280;66753;53.848;10.658;2023-04-30T07:28:50;102342.72;;;10.76
25985;BMP280;66753;53.848;10.658;2023-04-30T07:43:51;102356.31;;;11.50
25985;BMP280;66753;53.848;10.658;2023-04-30T07:58:51;102341.66;;;11.97
25985;BMP280;66753;53.848;10.658;2023-04-30T08:13:52;102345.50;;;12.35
25985;BMP280;66753;53.848;10.658;2023-04-30T08:28:53;102353.91;;;12.59
25985;BMP280;66753;53.848;10.658;2023-04-30T08:43:54;102384.94;;;13.28
25985;BMP280;66753;53.848;10.658;2023-04-30T08:58:56;102387.25;;;14.23
25985;BMP280;66753;53.848;10.658;2023-04-30T09:13:58;102393.34;;;14.78
25985;BMP280;66753;53.848;10.658;2023-04-30T09:28:59;102380.31;;;14.39
25985;BMP280;66753;53.848;10.658;2023-04-30T09:44:01;102381.34;;;14.55
25985;BMP280;66753;53.848;10.658;2023-04-30T09:59:02;102368.97;;;14.79
25985;BMP280;66753;53.848;10.658;2023-04-30T10:14:09;102358.19;;;14.96
25985;BMP280;66753;53.848;10.658;2023-04-30T10:29:16;102337.47;;;15.34
25985;BMP280;66753;53.848;10.658;2023-04-30T10:44:20;102344.19;;;15.85
25985;BMP280;66753;53.848;10.658;2023-04-30T10:59:21;102344.72;;;17.10
25985;BMP280;66753;53.848;10.658;2023-04-30T11:14:23;102340.56;;;17.56
25985;BMP280;66753;53.848;10.658;2023-04-30T11:29:24;102319.94;;;17.29
25985;BMP280;66753;53.848;10.658;2023-04-30T11:44:25;102325.31;;;18.03
25985;BMP280;66753;53.848;10.658;2023-04-30T11:59:26;102317.88;;;17.96
25985;BMP280;66753;53.848;10.658;2023-04-30T12:14:26;102320.50;;;18.27
25985;BMP280;66753;53.848;10.658;2023-04-30T12:29:28;102311.59;;;19.15
25985;BMP280;66753;53.848;10.658;2023-04-30T12:44:29;102308.94;;;19.63
25985;BMP280;66753;53.848;10.658;2023-04-30T13:14:53;102299.00;;;20.15
25985;BMP280;66753;53.848;10.658;2023-04-30T13:29:54;102263.47;;;20.06
25985;BMP280;66753;53.848;10.658;2023-04-30T13:44:54;102259.69;;;20.73
25985;BMP280;66753;53.848;10.658;2023-04-30T13:59:55;102232.06;;;20.50
25985;BMP280;66753;53.848;10.658;2023-04-30T14:14:56;102257.44;;;21.69
25985;BMP280;66753;53.848;10.658;2023-04-30T14:29:57;102226.09;;;21.07
25985;BMP280;66753;53.848;10.658;2023-04-30T14:44:57;102193.47;;;20.39
25985;BMP280;66753;53.848;10.658;2023-04-30T14:59:57;102178.16;;;20.14
25985;BMP280;66753;53.848;10.658;2023-04-30T15:14:59;102176.81;;;20.30
25985;BMP280;66753;53.848;10.658;2023-04-30T15:30:01;102187.16;;;20.61
25985;BMP280;66753;53.848;10.658;2023-04-30T15:45:01;102174.75;;;20.53
25985;BMP280;66753;53.848;10.658;2023-04-30T16:00:02;102141.56;;;20.09
25985;BMP280;66753;53.848;10.658;2023-04-30T16:15:04;102110.34;;;19.72
25985;BMP280;66753;53.848;10.658;2023-04-30T16:30:06;102109.50;;;19.97
25985;BMP280;66753;53.848;10.658;2023-04-30T16:45:07;102112.16;;;20.70
25985;BMP280;66753;53.848;10.658;2023-04-30T17:00:09;102134.59;;;21.39
25985;BMP280;66753;53.848;10.658;2023-04-30T17:15:10;102160.09;;;22.65
25985;BMP280;66753;53.848;10.658;2023-04-30T17:30:11;102154.59;;;23.24
25985;BMP280;66753;53.848;10.658;2023-04-30T17:45:11;102190.94;;;24.20
25985;BMP280;66753;53.848;10.658;2023-04-30T18:00:12;102184.81;;;24.09
25985;BMP280;66753;53.848;10.658;2023-04-30T18:15:13;102144.22;;;22.25
25985;BMP280;66753;53.848;10.658;2023-04-30T18:30:14;102093.91;;;19.22
25985;BMP280;66753;53.848;10.658;2023-04-30T18:45:14;102080.81;;;16.77
25985;BMP280;66753;53.848;10.658;2023-04-30T19:00:15;102067.00;;;15.29
25985;BMP280;66753;53.848;10.658;2023-04-30T19:15:17;102060.81;;;14.07
25985;BMP280;66753;53.848;10.658;2023-04-30T19:30:17;102063.38;;;13.08
25985;BMP280;66753;53.848;10.658;2023-04-30T19:45:18;102055.97;;;12.42
25985;BMP280;66753;53.848;10.658;2023-04-30T20:00:18;102053.06;;;11.87
25985;BMP280;66753;53.848;10.658;2023-04-30T20:15:20;102051.00;;;11.37
25985;BMP280;66753;53.848;10.658;2023-04-30T20:30:21;102038.38;;;10.90
25985;BMP280;66753;53.848;10.658;2023-04-30T20:45:24;102028.03;;;10.58
25985;BMP280;66753;53.848;10.658;2023-04-30T21:00:24;102020.75;;;10.28
25985;BMP280;66753;53.848;10.658;2023-04-30T21:15:25;102011.66;;;9.93
25985;BMP280;66753;53.848;10.658;2023-04-30T21:30:25;102009.53;;;9.68
25985;BMP280;66753;53.848;10.658;2023-04-30T21:45:26;102000.28;;;9.39
25985;BMP280;66753;53.848;10.658;2023-04-30T22:00:26;101997.41;;;9.22
25985;BMP280;66753;53.848;10.658;2023-04-30T22:15:27;101979.84;;;8.99
25985;BMP280;66753;53.848;10.658;2023-04-30T22:30:30;101973.66;;;8.71
25985;BMP280;66753;53.848;10.658;2023-04-30T22:45:30;101974.47;;;8.53
25985;BMP280;66753;53.848;10.658;2023-04-30T23:00:31;101962.91;;;8.30
25985;BMP280;66753;53.848;10.658;2023-04-30T23:15:33;101942.47;;;7.99
25985;BMP280;66753;53.848;10.658;2023-04-30T23:30:36;101932.91;;;7.79
25985;BMP280;66753;53.848;10.658;2023-04-30T23:45:41;101913.09;;;7.58
